Saint-Georges-De-Cacouna, Canada
Current Conditions -  °F | °C
As of 11:53 PM on Monday 26 Jan 2015 (Local Time) from KFVE Reporting Station
Clear Clear  
Wind Chill: -20°   Ceiling: Unl
Heat Index: -6°   Visibility: 10mi
Dew Point: -12°   Wind: 7mph
Humidity: 75%   Direction: 10°N
Pressure: 30.27"   Gusts: NA
Location:  47.92°N, 69.5°W
Report Text: KFVE 270453Z AUTO 01006KT 10SM CLR M21/M24 A3027 RMK AO2 SLP277 T12111244 411501222
Loading
Personal Weather Stations






























Interactive Weather Map New forecast layout! Learn more

10-Day Weather Forecast

Advertisements
Track Severe Weather on mobile